createdAt,value
2022-10-01T00:00:10.959Z,9.86
2022-10-01T00:03:09.575Z,9.84
2022-10-01T00:05:55.928Z,9.83
2022-10-01T00:08:41.983Z,9.76
2022-10-01T00:11:25.353Z,9.69
2022-10-01T00:14:42.941Z,9.61
2022-10-01T00:18:09.301Z,9.61
2022-10-01T00:25:04.438Z,9.57
2022-10-01T00:28:42.936Z,9.50
2022-10-01T00:31:32.291Z,9.46
2022-10-01T00:34:27.464Z,9.43
2022-10-01T00:37:07.600Z,9.44
2022-10-01T00:39:53.786Z,9.45
2022-10-01T00:42:40.091Z,9.43
2022-10-01T00:45:35.854Z,9.40
2022-10-01T00:48:14.164Z,9.38
2022-10-01T00:52:05.296Z,9.35
2022-10-01T00:55:00.942Z,9.28
2022-10-01T01:01:32.953Z,9.24
2022-10-01T01:04:35.966Z,9.25
2022-10-01T01:08:07.364Z,9.21
2022-10-01T01:11:53.188Z,9.13
2022-10-01T01:14:40.287Z,9.05
2022-10-01T01:18:56.962Z,8.97
2022-10-01T01:22:04.122Z,8.91
2022-10-01T01:25:21.573Z,8.87
2022-10-01T01:28:42.782Z,8.83
2022-10-01T01:31:59.386Z,8.78
2022-10-01T01:35:09.192Z,8.74
2022-10-01T01:38:33.134Z,8.69
2022-10-01T01:41:31.538Z,8.67
2022-10-01T01:45:29.233Z,8.61
2022-10-01T01:48:24.103Z,8.57
2022-10-01T01:51:19.280Z,8.58
2022-10-01T01:54:00.386Z,8.60
2022-10-01T01:56:59.822Z,8.63
2022-10-01T02:00:20.973Z,8.62
2022-10-01T02:03:30.937Z,8.60
2022-10-01T02:07:05.935Z,8.60
2022-10-01T02:10:11.647Z,8.59
2022-10-01T02:13:25.439Z,8.56
2022-10-01T02:16:45.298Z,8.52
2022-10-01T02:20:15.867Z,8.49
2022-10-01T02:23:51.561Z,8.48
2022-10-01T02:27:26.564Z,8.48
2022-10-01T02:30:14.004Z,8.47
2022-10-01T02:33:13.532Z,8.39
2022-10-01T02:36:00.874Z,8.40
2022-10-01T02:38:53.228Z,8.41
2022-10-01T02:41:38.400Z,8.40
2022-10-01T02:44:48.575Z,8.37
2022-10-01T02:51:53.157Z,8.34
2022-10-01T02:55:10.681Z,8.31
2022-10-01T02:58:08.605Z,8.20
2022-10-01T03:04:38.974Z,8.12
2022-10-01T03:32:49.203Z,8.09
2022-10-01T03:35:45.360Z,8.04
2022-10-01T03:38:43.865Z,7.98
2022-10-01T03:41:41.330Z,7.92
2022-10-01T03:47:43.849Z,7.82
2022-10-01T03:50:20.376Z,7.81
2022-10-01T03:53:22.838Z,7.80
2022-10-01T04:03:57.958Z,7.69
2022-10-01T04:09:13.179Z,7.68
2022-10-01T04:10:57.799Z,7.69
2022-10-01T04:14:39.657Z,7.69
2022-10-01T04:17:45.974Z,7.68
2022-10-01T04:21:33.221Z,7.70
2022-10-01T04:24:47.032Z,7.68
2022-10-01T04:32:01.331Z,7.65
2022-10-01T04:35:07.866Z,7.67
2022-10-01T04:38:27.333Z,7.66
2022-10-01T04:41:35.898Z,7.65
2022-10-01T04:44:31.763Z,7.70
2022-10-01T04:47:36.824Z,7.70
2022-10-01T04:50:36.491Z,7.69
2022-10-01T04:53:25.773Z,7.74
2022-10-01T04:56:27.111Z,7.74
2022-10-01T04:59:30.106Z,7.76
2022-10-01T05:02:26.486Z,7.80
2022-10-01T05:09:43.168Z,7.80
2022-10-01T05:12:49.048Z,7.79
2022-10-01T05:15:37.522Z,7.80
2022-10-01T05:18:18.382Z,7.80
2022-10-01T05:20:50.979Z,7.80
2022-10-01T05:23:24.949Z,7.86
2022-10-01T05:25:56.102Z,7.88
2022-10-01T05:28:29.479Z,7.89
2022-10-01T05:31:02.841Z,7.91
2022-10-01T05:33:32.445Z,7.96
2022-10-01T05:36:02.495Z,7.99
2022-10-01T05:38:37.851Z,8.00
2022-10-01T05:41:10.109Z,8.03
2022-10-01T05:43:44.554Z,8.06
2022-10-01T05:46:14.142Z,8.08
2022-10-01T05:48:43.309Z,8.10
2022-10-01T05:51:14.028Z,8.14
2022-10-01T05:54:21.685Z,8.20
2022-10-01T05:57:11.521Z,8.22
2022-10-01T06:00:15.174Z,8.26
2022-10-01T06:02:53.991Z,8.28
2022-10-01T06:05:31.906Z,8.33
2022-10-01T06:08:38.871Z,8.37
2022-10-01T06:14:58.071Z,8.42
2022-10-01T06:18:20.665Z,8.49
2022-10-01T06:21:12.237Z,8.57
2022-10-01T06:30:28.990Z,8.66
2022-10-01T06:36:47.067Z,8.69
2022-10-01T06:39:59.562Z,8.72
2022-10-01T06:44:08.710Z,8.83
2022-10-01T06:47:12.929Z,8.95
2022-10-01T06:50:21.931Z,9.07
2022-10-01T06:53:59.102Z,9.15
2022-10-01T06:58:50.744Z,9.22
2022-10-01T07:01:04.764Z,9.31
2022-10-01T07:04:34.392Z,9.36
2022-10-01T07:07:57.303Z,9.44
2022-10-01T07:11:11.314Z,9.50
2022-10-01T07:13:59.270Z,9.53
2022-10-01T07:17:25.559Z,9.57
2022-10-01T07:20:18.474Z,9.64
2022-10-01T07:23:05.357Z,9.74
2022-10-01T07:25:55.380Z,9.87
2022-10-01T07:28:59.586Z,9.98
2022-10-01T07:32:21.216Z,10.07
2022-10-01T07:38:51.557Z,10.12
2022-10-01T07:42:12.939Z,10.14
2022-10-01T07:44:58.522Z,10.20
2022-10-01T07:48:06.724Z,10.26
2022-10-01T07:51:08.125Z,10.31
2022-10-01T07:54:04.893Z,10.35
2022-10-01T07:57:09.957Z,10.43
2022-10-01T08:00:03.157Z,10.49
2022-10-01T08:03:24.198Z,10.57
2022-10-01T08:06:25.402Z,10.73
2022-10-01T08:10:09.278Z,10.85
2022-10-01T08:13:24.907Z,11.08
2022-10-01T08:19:55.045Z,11.26
2022-10-01T08:22:39.796Z,11.33
2022-10-01T08:25:14.369Z,11.38
2022-10-01T08:27:45.962Z,11.44
2022-10-01T08:30:21.719Z,11.53
2022-10-01T08:33:01.886Z,11.61
2022-10-01T08:35:39.540Z,11.70
2022-10-01T08:38:11.172Z,11.82
2022-10-01T08:41:23.110Z,11.98
2022-10-01T08:43:54.032Z,12.14
2022-10-01T08:46:29.692Z,12.33
2022-10-01T08:49:23.824Z,12.57
2022-10-01T08:52:07.673Z,13.01
2022-10-01T08:54:50.194Z,13.29
2022-10-01T08:57:25.810Z,13.52
2022-10-01T09:00:21.965Z,13.82
2022-10-01T09:02:53.244Z,14.01
2022-10-01T09:06:06.763Z,14.10
2022-10-01T09:09:04.675Z,14.24
2022-10-01T09:12:25.190Z,14.34
2022-10-01T09:15:27.740Z,14.44
2022-10-01T09:19:06.719Z,14.57
2022-10-01T09:22:40.602Z,14.81
2022-10-01T09:25:10.452Z,15.05
2022-10-01T09:27:42.007Z,15.29
2022-10-01T09:30:40.741Z,15.59
2022-10-01T09:33:20.353Z,15.94
2022-10-01T09:36:16.379Z,16.20
2022-10-01T09:39:35.397Z,16.39
2022-10-01T09:42:04.728Z,16.61
2022-10-01T09:44:37.652Z,16.73
2022-10-01T09:47:22.250Z,16.90
2022-10-01T09:49:53.044Z,17.12
2022-10-01T09:52:35.041Z,17.44
2022-10-01T09:55:41.547Z,17.82
2022-10-01T09:58:21.061Z,18.16
2022-10-01T10:00:55.437Z,18.36
2022-10-01T10:03:32.100Z,18.58
2022-10-01T10:06:03.869Z,18.70
2022-10-01T10:08:44.158Z,18.64
2022-10-01T10:11:26.805Z,18.51
2022-10-01T10:14:04.856Z,18.65
2022-10-01T10:16:47.866Z,18.98
2022-10-01T10:19:28.714Z,19.23
2022-10-01T10:22:11.210Z,19.09
2022-10-01T10:24:45.361Z,19.12
2022-10-01T10:27:56.535Z,19.18
2022-10-01T10:30:29.829Z,19.19
2022-10-01T10:33:06.196Z,19.16
2022-10-01T10:35:37.749Z,18.91
2022-10-01T10:38:25.827Z,18.64
2022-10-01T10:40:54.935Z,18.28
2022-10-01T10:43:36.388Z,17.99
2022-10-01T10:46:11.125Z,17.77
2022-10-01T10:48:49.811Z,17.60
2022-10-01T10:51:21.811Z,17.40
2022-10-01T10:53:59.992Z,17.35
2022-10-01T10:56:30.261Z,17.41
2022-10-01T10:59:11.049Z,17.40
2022-10-01T11:01:43.485Z,17.30
2022-10-01T11:04:33.195Z,17.27
2022-10-01T11:07:04.432Z,17.27
2022-10-01T11:10:55.475Z,17.26
2022-10-01T11:13:43.296Z,17.12
2022-10-01T11:20:27.807Z,17.17
2022-10-01T11:23:34.238Z,17.18
2022-10-01T11:26:19.540Z,17.11
2022-10-01T11:29:09.614Z,17.02
2022-10-01T11:32:30.229Z,16.92
2022-10-01T11:35:42.368Z,16.86
2022-10-01T11:38:51.087Z,16.81
2022-10-01T11:41:48.692Z,16.76
2022-10-01T11:44:41.791Z,16.73
2022-10-01T11:47:34.093Z,16.68
2022-10-01T11:50:28.930Z,16.55
2022-10-01T11:53:14.454Z,16.47
2022-10-01T11:56:10.238Z,16.47
2022-10-01T11:59:20.407Z,16.41
2022-10-01T12:02:19.745Z,16.36
2022-10-01T12:05:21.133Z,16.32
2022-10-01T12:08:23.644Z,16.22
2022-10-01T12:11:09.988Z,16.13
2022-10-01T12:14:04.892Z,16.10
2022-10-01T12:17:28.992Z,16.12
2022-10-01T12:20:20.741Z,16.09
2022-10-01T12:22:53.973Z,16.09
2022-10-01T12:25:50.543Z,16.09
2022-10-01T12:29:00.141Z,16.03
2022-10-01T12:32:18.517Z,15.90
2022-10-01T12:35:51.786Z,15.84
2022-10-01T12:38:58.939Z,15.80
2022-10-01T12:42:19.915Z,15.78
2022-10-01T12:45:10.036Z,15.75
2022-10-01T12:48:20.908Z,15.76
2022-10-01T12:51:31.939Z,15.73
2022-10-01T12:54:37.654Z,15.70
2022-10-01T12:57:21.997Z,15.71
2022-10-01T13:00:25.325Z,15.73
2022-10-01T13:03:11.643Z,15.70
2022-10-01T13:06:26.379Z,15.71
2022-10-01T13:09:35.245Z,15.75
2022-10-01T13:12:49.185Z,15.70
2022-10-01T13:15:33.293Z,15.67
2022-10-01T13:18:28.908Z,15.67
2022-10-01T13:21:13.046Z,15.68
2022-10-01T13:24:03.311Z,15.70
2022-10-01T13:27:01.359Z,15.68
2022-10-01T13:30:07.937Z,15.69
2022-10-01T13:33:01.090Z,15.71
2022-10-01T13:35:40.431Z,15.74
2022-10-01T13:38:31.749Z,15.77
2022-10-01T13:41:07.843Z,15.81
2022-10-01T13:43:38.809Z,15.82
2022-10-01T13:46:11.517Z,15.85
2022-10-01T13:48:51.714Z,15.88
2022-10-01T13:51:20.924Z,15.85
2022-10-01T13:54:02.498Z,15.84
2022-10-01T13:56:37.828Z,15.87
2022-10-01T13:59:39.669Z,15.88
2022-10-01T14:02:59.052Z,15.87
2022-10-01T14:05:45.656Z,15.85
2022-10-01T14:08:35.801Z,15.84
2022-10-01T14:11:42.726Z,15.86
2022-10-01T14:14:42.267Z,15.85
2022-10-01T14:17:15.846Z,15.79
2022-10-01T14:19:47.252Z,15.77
2022-10-01T14:22:42.210Z,15.76
2022-10-01T14:25:24.114Z,15.75
2022-10-01T14:28:11.081Z,15.74
2022-10-01T14:31:29.726Z,15.62
2022-10-01T14:34:16.883Z,15.60
2022-10-01T14:36:51.143Z,15.59
2022-10-01T14:39:27.242Z,15.59
2022-10-01T14:41:58.675Z,15.56
2022-10-01T14:44:42.159Z,15.56
2022-10-01T14:47:26.148Z,15.55
2022-10-01T14:49:57.729Z,15.55
2022-10-01T14:52:32.496Z,15.56
2022-10-01T14:55:13.853Z,15.57
2022-10-01T14:57:50.440Z,15.58
2022-10-01T15:00:24.143Z,15.58
2022-10-01T15:03:23.761Z,15.57
2022-10-01T15:06:03.982Z,15.52
2022-10-01T15:08:45.861Z,15.49
2022-10-01T15:11:27.627Z,15.44
2022-10-01T15:14:08.439Z,15.34
2022-10-01T15:16:38.094Z,15.32
2022-10-01T15:19:15.298Z,15.35
2022-10-01T15:21:55.291Z,15.36
2022-10-01T15:24:47.334Z,15.33
2022-10-01T15:27:21.547Z,15.27
2022-10-01T15:29:56.538Z,15.23
2022-10-01T15:32:28.292Z,15.18
2022-10-01T15:35:03.375Z,15.16
2022-10-01T15:37:36.541Z,15.12
2022-10-01T15:40:23.592Z,15.11
2022-10-01T15:43:42.766Z,15.07
2022-10-01T15:46:20.853Z,15.06
2022-10-01T15:49:17.544Z,15.03
2022-10-01T15:52:19.909Z,14.97
2022-10-01T15:54:59.241Z,14.94
2022-10-01T15:57:31.835Z,14.93
2022-10-01T16:00:03.834Z,14.91
2022-10-01T16:02:38.607Z,14.88
2022-10-01T16:05:09.150Z,14.85
2022-10-01T16:07:42.560Z,14.84
2022-10-01T16:10:42.609Z,14.83
2022-10-01T16:13:43.102Z,14.79
2022-10-01T16:16:20.282Z,14.76
2022-10-01T16:18:58.886Z,14.76
2022-10-01T16:21:28.005Z,14.75
2022-10-01T16:23:59.513Z,14.76
2022-10-01T16:26:28.818Z,14.76
2022-10-01T16:29:00.210Z,14.71
2022-10-01T16:31:31.036Z,14.51
2022-10-01T16:34:00.172Z,14.44
2022-10-01T16:36:32.198Z,14.41
2022-10-01T16:39:03.645Z,14.35
2022-10-01T16:41:36.801Z,14.27
2022-10-01T16:44:06.785Z,14.17
2022-10-01T16:46:36.786Z,14.06
2022-10-01T16:49:14.435Z,13.96
2022-10-01T16:51:43.487Z,13.86
2022-10-01T16:54:26.209Z,13.76
2022-10-01T16:56:56.078Z,13.66
2022-10-01T16:59:25.453Z,13.59
2022-10-01T17:01:57.549Z,13.49
2022-10-01T17:04:34.729Z,13.45
2022-10-01T17:07:03.874Z,13.39
2022-10-01T17:09:37.975Z,13.33
2022-10-01T17:12:12.308Z,13.28
2022-10-01T17:14:48.310Z,13.21
2022-10-01T17:17:58.815Z,13.16
2022-10-01T17:20:33.375Z,13.10
2022-10-01T17:23:08.631Z,13.00
2022-10-01T17:25:41.585Z,13.00
2022-10-01T17:28:15.578Z,13.03
2022-10-01T17:30:48.417Z,13.03
2022-10-01T17:33:24.245Z,13.01
2022-10-01T17:35:56.129Z,12.99
2022-10-01T17:38:32.012Z,12.98
2022-10-01T17:41:06.040Z,13.00
2022-10-01T17:43:37.135Z,12.99
2022-10-01T17:46:06.499Z,12.98
2022-10-01T17:48:35.561Z,12.93
2022-10-01T17:51:13.607Z,12.93
2022-10-01T17:53:49.241Z,12.93
2022-10-01T17:56:33.503Z,12.92
2022-10-01T17:59:03.326Z,12.89
2022-10-01T18:01:32.750Z,12.89
2022-10-01T18:04:43.675Z,12.89
2022-10-01T18:07:20.548Z,12.87
2022-10-01T18:09:54.819Z,12.85
2022-10-01T18:12:24.542Z,12.81
2022-10-01T18:15:27.270Z,12.81
2022-10-01T18:19:12.720Z,12.77
2022-10-01T18:22:25.931Z,12.76
2022-10-01T18:24:55.377Z,12.73
2022-10-01T18:27:38.630Z,12.74
2022-10-01T18:30:38.916Z,12.77
2022-10-01T18:33:12.033Z,12.75
2022-10-01T18:36:13.084Z,12.75
2022-10-01T18:38:52.947Z,12.72
2022-10-01T18:47:20.123Z,12.66
2022-10-01T18:51:11.893Z,12.66
2022-10-01T18:55:10.475Z,12.65
2022-10-01T18:58:20.370Z,12.65
2022-10-01T19:02:20.010Z,12.64
2022-10-01T19:06:13.167Z,12.62
2022-10-01T19:13:51.233Z,12.65
2022-10-01T19:17:04.718Z,12.68
2022-10-01T19:20:25.037Z,12.71
2022-10-01T19:24:26.223Z,12.71
2022-10-01T19:28:03.115Z,12.65
2022-10-01T19:31:52.062Z,12.63
2022-10-01T19:35:22.023Z,12.61
2022-10-01T19:38:20.715Z,12.61
2022-10-01T19:42:15.794Z,12.65
2022-10-01T19:45:11.621Z,12.66
2022-10-01T19:48:22.784Z,12.64
2022-10-01T19:51:33.976Z,12.60
2022-10-01T19:54:34.545Z,12.57
2022-10-01T19:57:55.402Z,12.58
2022-10-01T20:00:56.010Z,12.61
2022-10-01T20:04:23.176Z,12.60
2022-10-01T20:07:41.200Z,12.53
2022-10-01T20:12:07.707Z,12.46
2022-10-01T20:15:54.780Z,12.44
2022-10-01T20:23:46.181Z,12.37
2022-10-01T20:26:54.841Z,12.37
2022-10-01T20:30:21.423Z,12.38
2022-10-01T20:37:34.743Z,12.34
2022-10-01T20:40:54.415Z,12.33
2022-10-01T20:46:06.156Z,12.34
2022-10-01T20:47:56.081Z,12.30
2022-10-01T20:51:16.604Z,12.31
2022-10-01T20:54:52.441Z,12.31
2022-10-01T21:12:07.980Z,12.31
2022-10-01T21:34:18.029Z,12.19
2022-10-01T21:38:04.282Z,12.12
2022-10-01T21:41:30.661Z,12.08
2022-10-01T21:44:28.173Z,12.09
2022-10-01T21:48:00.456Z,12.12
2022-10-01T21:51:11.890Z,12.14
2022-10-01T21:55:02.715Z,12.16
2022-10-01T22:07:52.346Z,12.16
2022-10-01T22:17:54.381Z,12.32
2022-10-01T22:27:58.402Z,12.37
2022-10-01T22:31:12.575Z,12.36
2022-10-01T22:34:55.841Z,12.35
2022-10-01T22:38:14.087Z,12.33
2022-10-01T22:41:08.091Z,12.36
2022-10-01T22:47:48.507Z,12.34
2022-10-01T23:01:48.816Z,12.30
2022-10-01T23:13:35.051Z,12.24
2022-10-01T23:16:40.297Z,12.24
2022-10-01T23:23:43.525Z,12.23
2022-10-01T23:29:39.425Z,12.23
2022-10-01T23:35:18.389Z,12.25
2022-10-01T23:38:56.445Z,12.31
2022-10-01T23:51:10.923Z,12.37
2022-10-01T23:54:48.999Z,12.38
2022-10-01T23:58:28.776Z,12.41
